地図

経路データ

SID SEASON NUMBER BASIN SUBBASIN NAME ISO_TIME NATURE LAT LON WMO_WIND WMO_PRES WMO_AGENCY TRACK_TYPE DIST2LAND LANDFALL IFLAG USA_AGENCY USA_ATCF_ID USA_LAT USA_LON USA_RECORD USA_STATUS USA_WIND USA_PRES USA_SSHS USA_R34_NE USA_R34_SE USA_R34_SW USA_R34_NW USA_R50_NE USA_R50_SE USA_R50_SW USA_R50_NW USA_R64_NE USA_R64_SE USA_R64_SW USA_R64_NW USA_POCI USA_ROCI USA_RMW USA_EYE TOKYO_LAT TOKYO_LON TOKYO_GRADE TOKYO_WIND TOKYO_PRES TOKYO_R50_DIR TOKYO_R50_LONG TOKYO_R50_SHORT TOKYO_R30_DIR TOKYO_R30_LONG TOKYO_R30_SHORT TOKYO_LAND CMA_LAT CMA_LON CMA_CAT CMA_WIND CMA_PRES HKO_LAT HKO_LON HKO_CAT HKO_WIND HKO_PRES NEWDELHI_LAT NEWDELHI_LON NEWDELHI_GRADE NEWDELHI_WIND NEWDELHI_PRES NEWDELHI_CI NEWDELHI_DP NEWDELHI_POCI REUNION_LAT REUNION_LON REUNION_TYPE REUNION_WIND REUNION_PRES REUNION_TNUM REUNION_CI REUNION_RMW REUNION_R34_NE REUNION_R34_SE REUNION_R34_SW REUNION_R34_NW REUNION_R50_NE REUNION_R50_SE REUNION_R50_SW REUNION_R50_NW REUNION_R64_NE REUNION_R64_SE REUNION_R64_SW REUNION_R64_NW BOM_LAT BOM_LON BOM_TYPE BOM_WIND BOM_PRES BOM_TNUM BOM_CI BOM_RMW BOM_R34_NE BOM_R34_SE BOM_R34_SW BOM_R34_NW BOM_R50_NE BOM_R50_SE BOM_R50_SW BOM_R50_NW BOM_R64_NE BOM_R64_SE BOM_R64_SW BOM_R64_NW BOM_ROCI BOM_POCI BOM_EYE BOM_POS_METHOD BOM_PRES_METHOD NADI_LAT NADI_LON NADI_CAT NADI_WIND NADI_PRES WELLINGTON_LAT WELLINGTON_LON WELLINGTON_WIND WELLINGTON_PRES DS824_LAT DS824_LON DS824_STAGE DS824_WIND DS824_PRES TD9636_LAT TD9636_LON TD9636_STAGE TD9636_WIND TD9636_PRES TD9635_LAT TD9635_LON TD9635_WIND TD9635_PRES TD9635_ROCI NEUMANN_LAT NEUMANN_LON NEUMANN_CLASS NEUMANN_WIND NEUMANN_PRES MLC_LAT MLC_LON MLC_CLASS MLC_WIND MLC_PRES USA_GUST BOM_GUST BOM_GUST_PER REUNION_GUST REUNION_GUST_PER USA_SEAHGT USA_SEARAD_NE USA_SEARAD_SE USA_SEARAD_SW USA_SEARAD_NW STORM_SPEED STORM_DIR
2005226N13316 2005 56 NA NA NOT_NAMED 2005-08-13 12:00:00 TS 13.3000 -43.6000 25 1009 hurdat_atl main 1316 1298 O_____________ hurdat_atl AL102005 13.3000 -43.6000 TD 25 1009 -1 12 299
2005226N13316 2005 56 NA NA NOT_NAMED 2005-08-13 15:00:00 TS 13.5901 -44.1421 main 1307 1287 P_____________ AL102005 13.5901 -44.1421 TD 27 1008 -1 12 295
2005226N13316 2005 56 NA NA NOT_NAMED 2005-08-13 18:00:00 TS 13.8000 -44.7000 30 1008 hurdat_atl main 1287 1266 O_____________ hurdat_atl AL102005 13.8000 -44.7000 TD 30 1008 -1 1013 175 30 40 11 284
2005226N13316 2005 56 NA NA NOT_NAMED 2005-08-13 21:00:00 TS 13.8676 -45.2602 main 1260 1224 P_____________ AL102005 13.8676 -45.2602 TD 30 1008 -1 1013 175 30 10 270
2005226N13316 2005 56 NA NA NOT_NAMED 2005-08-14 00:00:00 TS 13.8000 -45.7000 30 1008 hurdat_atl main 1224 1193 O_____________ hurdat_atl AL102005 13.8000 -45.7000 TD 30 1008 -1 1013 175 30 40 7 246
2005226N13316 2005 56 NA NA NOT_NAMED 2005-08-14 03:00:00 TS 13.5923 -45.8950 main 1193 1169 P_____________ AL102005 13.5923 -45.8950 TD 27 1008 -1 1013 150 35 5 216
2005226N13316 2005 56 NA NA NOT_NAMED 2005-08-14 06:00:00 TS 13.4000 -46.0000 25 1009 hurdat_atl main 1169 1156 O_____________ hurdat_atl AL102005 13.4000 -46.0000 TD 25 1009 -1 1013 125 40 35 4 236
2005226N13316 2005 56 NA NA NOT_NAMED 2005-08-14 09:00:00 TS 13.3900 -46.2000 main 1156 1149 P_____________ AL102005 13.3900 -46.2000 TD 25 1009 -1 1013 125 40 4 284
2005226N13316 2005 56 NA NA NOT_NAMED 2005-08-14 12:00:00 TS 13.5000 -46.4000 25 1009 hurdat_atl main 1151 1151 O_____________ hurdat_atl AL102005 13.5000 -46.4000 TD 25 1009 -1 1013 125 40 35 4 311
2005226N13316 2005 56 NA NA NOT_NAMED 2005-08-14 15:00:00 TS 13.6699 -46.5276 main 1163 1157 P_____________ AL102005 13.6699 -46.5276 TD 25 1009 -1 1013 125 40 5 324
2005226N13316 2005 56 NA NA NOT_NAMED 2005-08-14 18:00:00 DS 13.9000 -46.7000 25 1010 hurdat_atl main 1169 1169 O_____________ hurdat_atl AL102005 13.9000 -46.7000 LO 25 1010 -3 1013 125 40 7 318
2005226N13316 2005 56 NA NA NOT_NAMED 2005-08-14 21:00:00 DS 14.1724 -46.9974 main 1180 1173 P_____________ AL102005 14.1724 -46.9974 LO 25 1010 -3 1013 112 32 8 306
2005226N13316 2005 56 NA NA NOT_NAMED 2005-08-15 00:00:00 DS 14.4000 -47.4000 25 1010 hurdat_atl main 1177 1161 O_____________ hurdat_atl AL102005 14.4000 -47.4000 LO 25 1010 -3 1013 100 25 9 290
2005226N13316 2005 56 NA NA NOT_NAMED 2005-08-15 03:00:00 DS 14.4801 -47.8852 main 1161 1137 P_____________ AL102005 14.4801 -47.8852 LO 25 1010 -3 1013 100 25 10 276
2005226N13316 2005 56 NA NA NOT_NAMED 2005-08-15 06:00:00 DS 14.5000 -48.4000 25 1010 hurdat_atl main 1137 1115 O_____________ hurdat_atl AL102005 14.5000 -48.4000 LO 25 1010 -3 1013 100 25 10 274
2005226N13316 2005 56 NA NA NOT_NAMED 2005-08-15 09:00:00 DS 14.5425 -48.8800 main 1115 1109 P_____________ AL102005 14.5425 -48.8800 LO 25 1010 -3 1013 100 25 9 277
2005226N13316 2005 56 NA NA NOT_NAMED 2005-08-15 12:00:00 DS 14.6000 -49.3000 25 1010 hurdat_atl main 1109 1101 O_____________ hurdat_atl AL102005 14.6000 -49.3000 LO 25 1010 -3 1013 100 25 7 281
2005226N13316 2005 56 NA NA NOT_NAMED 2005-08-15 15:00:00 DS 14.6849 -49.6300 main 1106 1096 P_____________ AL102005 14.6849 -49.6300 LO 25 1010 -3 1013 100 25 6 289
2005226N13316 2005 56 NA NA NOT_NAMED 2005-08-15 18:00:00 DS 14.8000 -49.9000 25 1010 hurdat_atl main 1102 1097 O_____________ hurdat_atl AL102005 14.8000 -49.9000 LO 25 1010 -3 1013 100 25 6 297
2005226N13316 2005 56 NA NA NOT_NAMED 2005-08-15 21:00:00 DS 14.9349 -50.1426 main 1103 1098 P_____________ AL102005 14.9349 -50.1426 LO 25 1010 -3 1013 100 25 6 302
2005226N13316 2005 56 NA NA NOT_NAMED 2005-08-16 00:00:00 DS 15.1000 -50.4000 25 1010 hurdat_atl main 1110 1106 O_____________ hurdat_atl AL102005 15.1000 -50.4000 LO 25 1010 -3 1013 100 25 7 302
2005226N13316 2005 56 NA NA NOT_NAMED 2005-08-16 03:00:00 DS 15.2849 -50.7201 main 1120 1116 P_____________ AL102005 15.2849 -50.7201 LO 25 1010 -3 1013 100 25 8 301
2005226N13316 2005 56 NA NA NOT_NAMED 2005-08-16 06:00:00 DS 15.5000 -51.1000 25 1010 hurdat_atl main 1127 1123 O_____________ hurdat_atl AL102005 15.5000 -51.1000 LO 25 1010 -3 1013 100 25 9 303
2005226N13316 2005 56 NA NA NOT_NAMED 2005-08-16 09:00:00 DS 15.7723 -51.5124 main 1147 1140 P_____________ AL102005 15.7723 -51.5124 LO 25 1010 -3 1013 95 25 10 300
2005226N13316 2005 56 NA NA NOT_NAMED 2005-08-16 12:00:00 DS 16.0000 -52.0000 25 1010 hurdat_atl main 1140 1091 O_____________ hurdat_atl AL102005 16.0000 -52.0000 LO 25 1010 -3 1013 90 25 11 287
2005226N13316 2005 56 NA NA NOT_NAMED 2005-08-16 15:00:00 DS 16.0877 -52.6002 main 1091 1038 P_____________ AL102005 16.0877 -52.6002 LO 25 1010 -3 1013 90 25 12 275
2005226N13316 2005 56 NA NA NOT_NAMED 2005-08-16 18:00:00 DS 16.1000 -53.2000 25 1010 hurdat_atl main 1038 994 O_____________ hurdat_atl AL102005 16.1000 -53.2000 LO 25 1010 -3 1013 90 25 10 271
2005226N13316 2005 56 NA NA NOT_NAMED 2005-08-16 21:00:00 DS 16.1073 -53.6801 main 994 960 P_____________ AL102005 16.1073 -53.6801 LO 25 1010 -3 1013 90 25 9 270
2005226N13316 2005 56 NA NA NOT_NAMED 2005-08-17 00:00:00 DS 16.1000 -54.1000 25 1010 hurdat_atl main 960 927 O_____________ hurdat_atl AL102005 16.1000 -54.1000 LO 25 1010 -3 1013 90 25 8 266
2005226N13316 2005 56 NA NA NOT_NAMED 2005-08-17 03:00:00 DS 16.0549 -54.5152 main 927 894 P_____________ AL102005 16.0549 -54.5152 LO 25 1010 -3 1013 90 25 8 270
2005226N13316 2005 56 NA NA NOT_NAMED 2005-08-17 06:00:00 DS 16.1000 -54.9000 25 1010 hurdat_atl main 894 886 O_____________ hurdat_atl AL102005 16.1000 -54.9000 LO 25 1010 -3 1013 90 25 8 295
2005226N13316 2005 56 NA NA NOT_NAMED 2005-08-17 09:00:00 DS 16.3698 -55.2349 main 894 887 P_____________ AL102005 16.3698 -55.2349 LO 25 1010 -3 1013 95 25 9 312
2005226N13316 2005 56 NA NA NOT_NAMED 2005-08-17 12:00:00 DS 16.7000 -55.6000 25 1010 hurdat_atl main 889 879 O_____________ hurdat_atl AL102005 16.7000 -55.6000 LO 25 1010 -3 1013 100 25 10 305
2005226N13316 2005 56 NA NA NOT_NAMED 2005-08-17 15:00:00 DS 16.9300 -56.0700 main 872 859 P_____________ AL102005 16.9300 -56.0700 LO 25 1010 -3 1012 100 25 10 293
2005226N13316 2005 56 NA NA NOT_NAMED 2005-08-17 18:00:00 DS 17.1000 -56.6000 25 1010 hurdat_atl main 859 840 O_____________ hurdat_atl AL102005 17.1000 -56.6000 LO 25 1010 -3 1012 100 25 11 285
2005226N13316 2005 56 NA NA NOT_NAMED 2005-08-17 21:00:00 DS 17.2073 -57.1353 main 840 820 P_____________ AL102005 17.2073 -57.1353 LO 25 1010 -3 1012 100 25 11 281
2005226N13316 2005 56 NA NA NOT_NAMED 2005-08-18 00:00:00 DS 17.3000 -57.7000 25 1010 hurdat_atl main 820 778 O_____________ hurdat_atl AL102005 17.3000 -57.7000 LO 25 1010 -3 1012 100 25 11 282
2005226N13316 2005 56 NA NA NOT_NAMED 2005-08-18 03:00:00 DS 17.4349 -58.2926 main 778 712 P_____________ AL102005 17.4349 -58.2926 LO 25 1011 -3 1012 100 25 12 285
2005226N13316 2005 56 NA NA NOT_NAMED 2005-08-18 06:00:00 DS 17.6000 -58.9000 25 1012 hurdat_atl main 712 646 O_____________ hurdat_atl AL102005 17.6000 -58.9000 LO 25 1012 -3 1012 100 25 12 287
2005226N13316 2005 56 NA NA NOT_NAMED 2005-08-18 09:00:00 DS 17.7928 -59.5022 main 646 581 P_____________ AL102005 17.7928 -59.5022 LO 25 1013 -3 1012 100 25 12 289
2005226N13316 2005 56 NA NA NOT_NAMED 2005-08-18 12:00:00 DS 18.0000 -60.1000 25 1014 hurdat_atl main 581 O_____________ hurdat_atl AL102005 18.0000 -60.1000 LO 25 1014 -3 1012 100 25 12 290

IBTrACS Databaseについて

本データベースは、米国NOAAが公開する1842年以降の世界の熱帯低気圧のベストトラックデータアーカイブInternational Best Track Archive for Climate Stewardship (IBTrACS)を、ウェブで閲覧しやすい形式に変換したものです。

最終更新日:2021-11-26